Albion, Pennsylvania
Current Conditions -  °F | °C
As of 4:51 AM on Saturday 29 Nov 2014 (Local Time) from KERI Reporting Station
Overcast Overcast  
Wind Chill: -7°   Ceiling: 8000
Heat Index: -2°   Visibility: 10mi
Dew Point: -7°   Wind: 12mph
Humidity: 69%   Direction: 170°S
Pressure: 30.1"   Gusts: NA
Location:  41.89°N, 80.36°W
Report Text: KERI 290951Z AUTO 17010KT 10SM OVC080 M02/M07 A3010 RMK AO2 SLP202 T10171067
Loading
Personal Weather Stations






























Interactive Weather Map New forecast layout! Learn more

10-Day Weather Forecast

Advertisements
Track Severe Weather on mobile